Time;durP1;ratioP1;P1;durP2;ratioP2;P2;SDS_P1;SDS_P2;PMS_P1;PMS_P2;Temp;Humidity;BMP_temperature;BMP_pressure;BME280_temperature;BME280_humidity;BME280_pressure;Samples;Min_cycle;Max_cycle;Signal;HPM_P1;HPM_P2
2022/07/17 00:01:46;;;;;;;0.00;0.00;;;8.30;99.90;;;;;;5024382;28;20393;-74
2022/07/17 00:04:12;;;;;;;0.00;0.00;;;8.30;99.90;;;;;;5015652;28;20056;-74
2022/07/17 00:06:37;;;;;;;0.32;0.30;;;8.30;99.90;;;;;;5015771;28;20049;-74
2022/07/17 00:09:03;;;;;;;0.32;0.32;;;8.20;99.90;;;;;;5015440;28;20037;-74
2022/07/17 00:11:29;;;;;;;0.15;0.05;;;8.20;99.90;;;;;;5023675;28;20072;-74
2022/07/17 00:13:54;;;;;;;0.40;0.20;;;8.20;99.90;;;;;;5035637;28;20172;-74
2022/07/17 00:16:20;;;;;;;0.00;0.00;;;8.20;99.90;;;;;;5035275;28;20492;-74
2022/07/17 00:18:46;;;;;;;0.00;0.00;;;8.10;99.90;;;;;;5035243;28;20125;-74
2022/07/17 00:21:11;;;;;;;0.00;0.00;;;8.00;99.90;;;;;;5029024;28;20045;-74
2022/07/17 00:23:37;;;;;;;0.00;0.00;;;8.00;99.90;;;;;;5015120;28;20444;-74
2022/07/17 00:26:02;;;;;;;0.00;0.00;;;8.00;99.90;;;;;;5015720;28;20077;-74
2022/07/17 00:28:28;;;;;;;0.00;0.00;;;8.00;99.90;;;;;;5015420;28;20125;-75
2022/07/17 00:30:54;;;;;;;0.00;0.00;;;8.00;99.90;;;;;;5017930;28;20037;-74
2022/07/17 00:33:19;;;;;;;0.00;0.00;;;7.90;99.90;;;;;;5028320;28;20046;-74
2022/07/17 00:35:45;;;;;;;0.77;0.20;;;7.90;99.90;;;;;;5015115;28;20042;-74
2022/07/17 00:38:10;;;;;;;2.05;0.30;;;7.90;99.90;;;;;;5014991;28;20034;-74
2022/07/17 00:40:36;;;;;;;0.10;0.10;;;7.90;99.90;;;;;;5014113;28;20037;-74
2022/07/17 00:43:02;;;;;;;0.20;0.20;;;7.80;99.90;;;;;;5034621;28;20499;-74
2022/07/17 00:45:28;;;;;;;0.00;0.00;;;7.80;99.90;;;;;;5034859;28;20060;-74
2022/07/17 00:47:56;;;;;;;1.40;0.63;;;7.70;99.90;;;;;;5034634;28;20084;-74
2022/07/17 00:50:29;;;;;;;0.13;0.05;;;7.70;99.90;;;;;;5034599;28;20504;-74
2022/07/17 00:52:54;;;;;;;0.95;0.52;;;7.70;99.90;;;;;;5015764;28;20103;-75
2022/07/17 00:55:21;;;;;;;0.00;0.00;;;7.70;99.90;;;;;;5014925;28;20041;-74
2022/07/17 00:57:48;;;;;;;0.00;0.00;;;7.70;99.90;;;;;;5014770;28;20200;-74
2022/07/17 01:00:16;;;;;;;0.00;0.00;;;7.60;99.90;;;;;;5014674;28;20091;-74
2022/07/17 01:02:46;;;;;;;0.98;0.28;;;7.60;99.90;;;;;;5030094;28;20493;-74
2022/07/17 01:05:12;;;;;;;0.00;0.00;;;7.60;99.90;;;;;;5034506;28;20064;-74
2022/07/17 01:07:37;;;;;;;1.92;0.20;;;7.60;99.90;;;;;;5032856;28;20037;-74
2022/07/17 01:10:03;;;;;;;0.17;0.08;;;7.60;99.90;;;;;;5034342;28;20238;-74
2022/07/17 01:12:30;;;;;;;0.00;0.00;;;7.50;99.90;;;;;;5034315;28;20041;-74
2022/07/17 01:14:56;;;;;;;0.00;0.00;;;7.50;99.90;;;;;;5034263;28;20047;-74
2022/07/17 01:17:23;;;;;;;0.10;0.10;;;7.50;99.90;;;;;;5034293;28;20042;-74
2022/07/17 01:19:49;;;;;;;0.00;0.00;;;7.40;99.90;;;;;;5033824;28;20125;-74
2022/07/17 01:22:14;;;;;;;0.03;0.03;;;7.40;99.90;;;;;;5021541;28;20120;-74
2022/07/17 01:24:41;;;;;;;0.10;0.10;;;7.40;99.90;;;;;;5014146;28;20124;-74
2022/07/17 01:27:07;;;;;;;0.00;0.00;;;7.40;99.90;;;;;;5014307;28;20445;-74
2022/07/17 01:29:35;;;;;;;0.00;0.00;;;7.40;99.90;;;;;;5014229;28;20078;-74
2022/07/17 01:32:00;;;;;;;0.28;0.10;;;7.40;99.90;;;;;;5023222;28;20042;-75
2022/07/17 01:34:26;;;;;;;0.00;0.00;;;7.40;99.90;;;;;;5033849;28;20034;-74
2022/07/17 01:36:51;;;;;;;0.00;0.00;;;7.30;99.90;;;;;;5033910;28;20038;-74
2022/07/17 01:39:17;;;;;;;1.25;0.73;;;7.30;99.90;;;;;;5033447;28;20042;-74
2022/07/17 01:41:43;;;;;;;0.08;0.08;;;7.30;99.90;;;;;;5026601;28;20038;-74
2022/07/17 01:44:08;;;;;;;0.08;0.08;;;7.30;99.90;;;;;;5013933;28;20133;-74
2022/07/17 01:46:34;;;;;;;0.00;0.00;;;7.30;99.90;;;;;;5013808;28;20072;-74
2022/07/17 01:49:00;;;;;;;0.10;0.10;;;7.30;99.90;;;;;;5013631;28;20444;-74
2022/07/17 01:51:27;;;;;;;0.00;0.00;;;7.30;99.90;;;;;;5018114;28;20119;-74
2022/07/17 01:53:53;;;;;;;0.00;0.00;;;7.30;99.90;;;;;;5033474;28;20407;-74
2022/07/17 01:56:18;;;;;;;0.00;0.00;;;7.30;99.90;;;;;;5033252;28;20050;-74
2022/07/17 01:58:44;;;;;;;0.35;0.25;;;7.30;99.90;;;;;;5033337;28;20053;-73
2022/07/17 02:01:10;;;;;;;0.00;0.00;;;7.30;99.90;;;;;;5030945;28;20405;-74
2022/07/17 02:03:35;;;;;;;0.17;0.10;;;7.20;99.90;;;;;;5013461;28;20038;-73
2022/07/17 02:06:01;;;;;;;0.10;0.10;;;7.20;99.90;;;;;;5013505;28;20046;-73
2022/07/17 02:08:26;;;;;;;0.00;0.00;;;7.20;99.90;;;;;;5013525;28;20049;-73
2022/07/17 02:10:52;;;;;;;0.00;0.00;;;7.20;99.90;;;;;;5013475;28;20448;-74
2022/07/17 02:13:18;;;;;;;0.00;0.00;;;7.20;99.90;;;;;;5032435;28;20042;-74
2022/07/17 02:15:43;;;;;;;0.75;0.60;;;7.20;99.90;;;;;;5033266;28;20175;-74
2022/07/17 02:18:09;;;;;;;0.55;0.35;;;7.20;99.90;;;;;;5032782;28;20045;-74
2022/07/17 02:20:34;;;;;;;0.10;0.10;;;7.20;99.90;;;;;;5032755;28;20033;-73
2022/07/17 02:23:00;;;;;;;0.20;0.20;;;7.30;99.90;;;;;;5031986;28;20407;-73
2022/07/17 02:25:25;;;;;;;0.30;0.25;;;7.20;99.90;;;;;;5032910;28;20455;-74
2022/07/17 02:27:51;;;;;;;0.10;0.10;;;7.20;99.90;;;;;;5032886;28;20045;-73
2022/07/17 02:30:18;;;;;;;0.00;0.00;;;7.20;99.90;;;;;;5032883;28;20041;-73
2022/07/17 02:32:44;;;;;;;0.00;0.00;;;7.10;99.90;;;;;;5031086;28;20045;-73
2022/07/17 02:35:11;;;;;;;0.10;0.05;;;7.10;99.90;;;;;;5032997;28;20049;-73
2022/07/17 02:37:37;;;;;;;0.20;0.20;;;7.10;99.90;;;;;;5032704;28;20048;-73
2022/07/17 02:40:04;;;;;;;0.00;0.00;;;7.10;99.90;;;;;;5031602;28;20104;-74
2022/07/17 02:42:30;;;;;;;0.00;0.00;;;7.20;99.90;;;;;;5032315;28;20121;-74
2022/07/17 02:44:57;;;;;;;0.00;0.00;;;7.20;99.90;;;;;;5032606;28;20034;-74
2022/07/17 02:47:26;;;;;;;0.60;0.30;;;7.20;99.90;;;;;;5032946;28;20499;-74
2022/07/17 02:49:52;;;;;;;0.00;0.00;;;7.20;99.90;;;;;;5032472;28;20056;-74
2022/07/17 02:52:18;;;;;;;0.22;0.08;;;7.20;99.90;;;;;;5018648;28;20085;-73
2022/07/17 02:54:44;;;;;;;0.00;0.00;;;7.20;99.90;;;;;;5012796;28;20050;-73
2022/07/17 02:57:09;;;;;;;0.63;0.63;;;7.20;99.90;;;;;;5012804;28;20103;-74
2022/07/17 02:59:35;;;;;;;0.00;0.00;;;7.10;99.90;;;;;;5012496;28;20038;-74
2022/07/17 03:02:00;;;;;;;0.10;0.10;;;7.10;99.90;;;;;;5023278;28;20042;-73
2022/07/17 03:04:26;;;;;;;3.00;1.90;;;7.10;99.90;;;;;;5031965;28;20171;-74
2022/07/17 03:06:52;;;;;;;1.85;0.40;;;7.10;99.90;;;;;;5032285;28;20499;-74
2022/07/17 03:09:17;;;;;;;1.75;0.75;;;7.10;99.90;;;;;;5024519;28;20049;-73
2022/07/17 03:11:43;;;;;;;0.00;0.00;;;7.10;99.90;;;;;;5013073;28;20176;-74
2022/07/17 03:14:10;;;;;;;0.57;0.52;;;7.10;99.90;;;;;;5012713;28;20045;-73
2022/07/17 03:16:35;;;;;;;0.00;0.00;;;7.10;99.90;;;;;;5012535;28;20046;-73
2022/07/17 03:19:01;;;;;;;0.03;0.03;;;7.10;99.90;;;;;;5012716;28;20049;-74
2022/07/17 03:21:26;;;;;;;0.35;0.32;;;7.10;99.90;;;;;;5016221;28;20038;-74
2022/07/17 03:23:52;;;;;;;0.10;0.10;;;7.10;99.90;;;;;;5012434;28;20042;-74
2022/07/17 03:26:17;;;;;;;0.10;0.10;;;7.10;99.90;;;;;;5012774;28;20112;-73
2022/07/17 03:28:43;;;;;;;0.03;0.03;;;7.00;99.90;;;;;;5012539;28;20066;-74
2022/07/17 03:31:08;;;;;;;0.03;0.03;;;7.00;99.90;;;;;;5012384;28;20048;-73
2022/07/17 03:33:34;;;;;;;0.00;0.00;;;7.10;99.90;;;;;;5012571;28;20084;-73
2022/07/17 03:36:00;;;;;;;0.63;0.55;;;7.10;99.90;;;;;;5012329;28;20050;-73
2022/07/17 03:38:25;;;;;;;0.00;0.00;;;7.10;99.90;;;;;;5012303;28;20081;-74
2022/07/17 03:40:51;;;;;;;0.13;0.13;;;7.10;99.90;;;;;;5012571;28;20034;-74
2022/07/17 03:43:16;;;;;;;10.32;0.38;;;7.10;99.90;;;;;;5032128;28;20129;-73
2022/07/17 03:45:42;;;;;;;0.10;0.10;;;7.10;99.90;;;;;;5032002;28;20049;-73
2022/07/17 03:48:08;;;;;;;0.00;0.00;;;7.10;99.90;;;;;;5032135;28;20582;-73
2022/07/17 03:50:33;;;;;;;0.20;0.13;;;7.10;99.90;;;;;;5032045;28;20049;-73
2022/07/17 03:52:59;;;;;;;0.00;0.00;;;7.00;99.90;;;;;;5018921;28;20042;-74
2022/07/17 03:55:25;;;;;;;0.55;0.55;;;7.00;99.90;;;;;;5032464;28;20050;-73
2022/07/17 03:57:50;;;;;;;0.35;0.30;;;7.10;99.90;;;;;;5031530;28;20056;-74
2022/07/17 04:00:16;;;;;;;0.00;0.00;;;7.10;99.90;;;;;;5029857;28;20103;-73
2022/07/17 04:02:42;;;;;;;0.25;0.25;;;7.20;99.90;;;;;;5031380;28;20037;-73
2022/07/17 04:05:09;;;;;;;0.00;0.00;;;7.30;99.90;;;;;;5031952;28;20041;-73
2022/07/17 04:07:37;;;;;;;0.00;0.00;;;7.40;99.90;;;;;;5031791;28;20120;-74
2022/07/17 04:10:03;;;;;;;0.00;0.00;;;7.50;99.90;;;;;;5031874;28;20115;-73
2022/07/17 04:12:29;;;;;;;0.00;0.00;;;7.60;99.90;;;;;;5014588;28;20458;-73
2022/07/17 04:14:54;;;;;;;0.20;0.20;;;7.70;99.90;;;;;;5031938;28;20123;-73
2022/07/17 04:17:20;;;;;;;0.05;0.05;;;7.70;99.90;;;;;;5034003;28;20095;-74
2022/07/17 04:19:45;;;;;;;0.00;0.00;;;7.80;99.90;;;;;;5034942;28;20045;-73
2022/07/17 04:22:11;;;;;;;0.28;0.22;;;7.90;99.90;;;;;;5034862;28;20050;-73
2022/07/17 04:24:37;;;;;;;0.00;0.00;;;7.90;99.90;;;;;;5035103;28;20037;-74
2022/07/17 04:27:03;;;;;;;0.13;0.10;;;8.00;99.90;;;;;;5035263;28;20073;-74
2022/07/17 04:29:29;;;;;;;0.38;0.38;;;8.10;99.90;;;;;;5034947;28;20125;-73
2022/07/17 04:31:54;;;;;;;0.10;0.10;;;8.20;99.90;;;;;;5034476;28;20441;-73
2022/07/17 04:34:20;;;;;;;0.00;0.00;;;8.30;99.90;;;;;;5035065;28;20369;-74
2022/07/17 04:36:45;;;;;;;0.00;0.00;;;8.30;99.90;;;;;;5027817;28;20065;-74
2022/07/17 04:39:11;;;;;;;0.10;0.10;;;8.30;99.90;;;;;;5015118;28;20042;-74
2022/07/17 04:41:37;;;;;;;0.00;0.00;;;8.30;99.90;;;;;;5023986;28;20038;-73
2022/07/17 04:44:02;;;;;;;0.00;0.00;;;8.40;99.90;;;;;;5034675;28;20638;-74
2022/07/17 04:46:28;;;;;;;0.00;0.00;;;8.50;99.90;;;;;;5034718;28;20074;-74
2022/07/17 04:48:53;;;;;;;0.20;0.10;;;8.70;99.90;;;;;;5034673;28;20446;-73
2022/07/17 04:51:19;;;;;;;0.00;0.00;;;8.80;99.90;;;;;;5027791;28;20120;-73
2022/07/17 04:53:45;;;;;;;0.00;0.00;;;8.90;99.90;;;;;;5014868;28;20042;-74
2022/07/17 04:56:10;;;;;;;0.35;0.35;;;9.10;99.90;;;;;;5014668;28;20050;-73
2022/07/17 04:58:36;;;;;;;0.10;0.10;;;9.20;99.90;;;;;;5013264;28;20054;-74
2022/07/17 05:01:02;;;;;;;0.00;0.00;;;9.30;99.90;;;;;;5015872;28;20461;-75
2022/07/17 05:03:27;;;;;;;0.65;0.45;;;9.40;99.90;;;;;;5014714;28;20046;-74
2022/07/17 05:05:53;;;;;;;0.03;0.03;;;9.50;99.90;;;;;;5014725;28;20053;-74
2022/07/17 05:08:18;;;;;;;0.20;0.20;;;9.50;99.90;;;;;;5014433;28;20049;-74
2022/07/17 05:10:45;;;;;;;0.17;0.17;;;9.60;99.90;;;;;;5019745;28;20077;-74
2022/07/17 05:13:12;;;;;;;0.10;0.10;;;9.70;99.90;;;;;;5034288;28;20115;-74
2022/07/17 05:15:38;;;;;;;0.47;0.47;;;9.70;99.90;;;;;;5034759;28;20112;-74
2022/07/17 05:18:03;;;;;;;0.03;0.03;;;9.90;99.90;;;;;;5034298;28;20072;-74
2022/07/17 05:20:29;;;;;;;0.00;0.00;;;10.00;99.90;;;;;;5030508;28;20496;-74
2022/07/17 05:22:56;;;;;;;0.00;0.00;;;10.10;99.90;;;;;;5014208;28;20108;-75
2022/07/17 05:25:22;;;;;;;7.05;0.52;;;10.20;99.90;;;;;;5014223;28;20121;-74
2022/07/17 05:27:47;;;;;;;0.30;0.30;;;10.30;99.90;;;;;;5013695;28;20121;-74
2022/07/17 05:30:13;;;;;;;0.00;0.00;;;10.50;99.90;;;;;;5015089;28;20088;-74
2022/07/17 05:32:39;;;;;;;0.05;0.05;;;10.60;99.90;;;;;;5033913;28;20052;-74
2022/07/17 05:35:05;;;;;;;0.40;0.40;;;10.70;99.90;;;;;;5033771;28;20043;-75
2022/07/17 05:37:30;;;;;;;2.78;0.28;;;10.80;99.90;;;;;;5032417;28;20077;-74
2022/07/17 05:39:56;;;;;;;0.17;0.17;;;11.00;99.90;;;;;;5033621;28;20080;-74
2022/07/17 05:42:22;;;;;;;0.20;0.20;;;11.10;99.90;;;;;;5015139;28;20580;-74
2022/07/17 05:44:47;;;;;;;0.00;0.00;;;11.20;99.90;;;;;;5014180;28;20121;-74
2022/07/17 05:47:13;;;;;;;0.20;0.20;;;11.30;99.90;;;;;;5013900;28;20038;-75
2022/07/17 05:49:39;;;;;;;0.00;0.00;;;11.50;99.90;;;;;;5023661;28;20431;-74
2022/07/17 05:52:05;;;;;;;0.43;0.35;;;11.70;99.90;;;;;;5017747;28;20073;-75
2022/07/17 05:54:32;;;;;;;0.10;0.10;;;11.90;99.90;;;;;;5013827;28;20038;-74
2022/07/17 05:56:58;;;;;;;0.00;0.00;;;12.00;99.90;;;;;;5013401;28;20061;-75
2022/07/17 05:59:24;;;;;;;0.65;0.65;;;12.20;99.90;;;;;;5025306;28;20050;-75
2022/07/17 06:01:49;;;;;;;1.20;0.85;;;12.40;99.90;;;;;;5019828;28;20045;-75
2022/07/17 06:04:15;;;;;;;0.00;0.00;;;12.70;99.90;;;;;;5013662;28;20077;-75
2022/07/17 06:06:41;;;;;;;0.28;0.28;;;13.30;99.90;;;;;;5013648;28;20121;-75
2022/07/17 06:09:06;;;;;;;0.00;0.00;;;13.90;99.90;;;;;;5013507;28;20057;-75
2022/07/17 06:11:32;;;;;;;1.98;0.43;;;14.20;99.90;;;;;;5023192;28;20052;-74
2022/07/17 06:13:58;;;;;;;0.00;0.00;;;14.90;99.90;;;;;;5033217;28;20498;-76
2022/07/17 06:16:23;;;;;;;0.10;0.05;;;16.00;99.90;;;;;;5033213;28;20033;-76
2022/07/17 06:18:49;;;;;;;0.00;0.00;;;17.30;99.90;;;;;;5032826;28;20191;-75
2022/07/17 06:21:14;;;;;;;0.65;0.35;;;18.30;99.90;;;;;;5025039;28;20042;-75
2022/07/17 06:23:40;;;;;;;0.00;0.00;;;19.40;99.90;;;;;;5010363;28;20562;-76
2022/07/17 06:26:06;;;;;;;0.00;0.00;;;20.10;99.90;;;;;;5010246;28;20136;-76
2022/07/17 06:28:31;;;;;;;0.10;0.08;;;20.90;99.90;;;;;;5010246;28;20100;-75
2022/07/17 06:30:57;;;;;;;0.00;0.00;;;21.10;99.90;;;;;;5011268;28;20045;-75
2022/07/17 06:33:23;;;;;;;0.00;0.00;;;21.70;99.90;;;;;;5010160;28;20050;-76
2022/07/17 06:35:48;;;;;;;0.32;0.30;;;22.40;99.90;;;;;;5010983;28;20056;-76
2022/07/17 06:38:14;;;;;;;0.10;0.10;;;22.80;88.10;;;;;;5010551;28;20069;-76
2022/07/17 06:40:39;;;;;;;0.00;0.00;;;23.20;76.10;;;;;;5010166;28;20100;-76
2022/07/17 06:43:06;;;;;;;0.00;0.00;;;23.60;73.30;;;;;;5010654;28;20049;-76
2022/07/17 06:45:32;;;;;;;0.00;0.00;;;23.70;53.00;;;;;;5011193;28;20049;-76
2022/07/17 06:47:57;;;;;;;0.08;0.08;;;24.00;42.70;;;;;;5010026;28;20037;-76
2022/07/17 06:50:23;;;;;;;0.05;0.05;;;23.80;42.40;;;;;;5010122;28;20042;-76
2022/07/17 06:52:49;;;;;;;0.00;0.00;;;23.90;54.20;;;;;;5014935;28;20103;-76
2022/07/17 06:55:14;;;;;;;0.00;0.00;;;24.70;29.90;;;;;;5029531;28;20051;-75
2022/07/17 06:57:40;;;;;;;1.98;0.98;;;25.10;28.10;;;;;;5029031;28;20506;-75
2022/07/17 07:00:09;;;;;;;0.00;0.00;;;24.40;22.10;;;;;;5029625;28;20136;-76
2022/07/17 07:02:35;;;;;;;0.00;0.00;;;23.20;29.30;;;;;;5025482;28;20484;-75
2022/07/17 07:05:00;;;;;;;0.00;0.00;;;22.10;35.40;;;;;;5010360;28;20049;-76
2022/07/17 07:07:26;;;;;;;0.00;0.00;;;21.00;43.80;;;;;;5010061;28;20053;-75
2022/07/17 07:09:52;;;;;;;0.20;0.10;;;20.30;65.20;;;;;;5010116;28;20054;-75
2022/07/17 07:12:17;;;;;;;0.00;0.00;;;19.80;87.80;;;;;;5009260;28;20046;-75
2022/07/17 07:14:43;;;;;;;1.90;0.90;;;19.60;92.20;;;;;;5007004;28;20046;-75
2022/07/17 07:17:09;;;;;;;1.65;0.40;;;19.30;95.60;;;;;;5009316;28;20081;-75
2022/07/17 07:19:34;;;;;;;0.15;0.13;;;19.10;98.20;;;;;;5006866;28;20042;-75
2022/07/17 07:22:00;;;;;;;0.10;0.10;;;19.00;99.90;;;;;;5009320;28;20046;-74
2022/07/17 07:24:25;;;;;;;0.17;0.17;;;18.90;99.90;;;;;;5006585;28;20048;-75
2022/07/17 07:26:51;;;;;;;0.00;0.00;;;18.90;99.90;;;;;;5009788;28;20061;-76
2022/07/17 07:29:16;;;;;;;0.00;0.00;;;18.90;99.90;;;;;;5011233;28;20125;-75
2022/07/17 07:31:42;;;;;;;0.00;0.00;;;18.90;99.90;;;;;;5028248;28;20389;-75
2022/07/17 07:34:07;;;;;;;3.92;1.20;;;18.90;99.90;;;;;;5017118;28;20034;-75
2022/07/17 07:36:33;;;;;;;0.00;0.00;;;18.90;99.90;;;;;;5009713;28;20120;-75
2022/07/17 07:38:59;;;;;;;0.00;0.00;;;18.80;98.70;;;;;;5009528;28;20046;-75
2022/07/17 07:41:24;;;;;;;6.82;0.30;;;18.80;99.90;;;;;;5024576;28;20045;-75
2022/07/17 07:43:50;;;;;;;0.00;0.00;;;19.00;99.90;;;;;;5027746;28;20041;-75
2022/07/17 07:46:15;;;;;;;0.10;0.00;;;19.20;98.60;;;;;;5028399;28;20088;-75
2022/07/17 07:48:41;;;;;;;0.30;0.22;;;19.20;98.70;;;;;;5007993;28;20130;-75
2022/07/17 07:51:07;;;;;;;1.42;0.45;;;19.20;96.20;;;;;;5025542;28;20049;-75
2022/07/17 07:53:32;;;;;;;0.00;0.00;;;19.30;98.80;;;;;;5025741;28;20044;-76
2022/07/17 07:55:58;;;;;;;0.40;0.30;;;19.50;96.60;;;;;;5012762;28;20037;-76
2022/07/17 07:58:23;;;;;;;0.28;0.20;;;19.70;94.80;;;;;;5019830;28;20057;-76
2022/07/17 08:00:49;;;;;;;0.00;0.00;;;20.00;92.80;;;;;;5032950;28;20045;-76
2022/07/17 08:03:15;;;;;;;0.08;0.08;;;20.10;89.80;;;;;;5032935;28;20121;-76
2022/07/17 08:05:41;;;;;;;0.00;0.00;;;20.10;90.20;;;;;;5033004;28;20111;-76
2022/07/17 08:08:06;;;;;;;1.55;0.38;;;20.10;84.90;;;;;;5032809;28;20053;-76
2022/07/17 08:10:32;;;;;;;1.10;0.63;;;20.40;90.00;;;;;;5032227;28;20045;-76
2022/07/17 08:12:57;;;;;;;1.02;0.22;;;20.50;86.30;;;;;;5012296;28;20100;-73
2022/07/17 08:15:23;;;;;;;0.20;0.10;;;20.50;83.90;;;;;;5010858;28;20527;-73
2022/07/17 08:17:51;;;;;;;0.10;0.05;;;20.70;77.30;;;;;;5009179;28;20559;-74
2022/07/17 08:20:19;;;;;;;0.00;0.00;;;20.80;80.80;;;;;;5012545;28;20050;-74
2022/07/17 08:22:46;;;;;;;0.03;0.03;;;21.00;77.10;;;;;;5012027;28;20041;-74
2022/07/17 08:25:12;;;;;;;0.25;0.20;;;20.90;65.00;;;;;;5012158;28;20046;-75
2022/07/17 08:27:39;;;;;;;0.00;0.00;;;20.90;73.80;;;;;;5011816;28;20050;-74
2022/07/17 08:30:06;;;;;;;0.00;0.00;;;21.60;68.80;;;;;;5014874;28;20049;-74
2022/07/17 08:32:33;;;;;;;0.00;0.00;;;22.30;48.20;;;;;;5012708;28;20141;-74
2022/07/17 08:34:58;;;;;;;0.40;0.40;;;23.20;45.90;;;;;;5028746;28;20129;-74
2022/07/17 08:37:24;;;;;;;0.00;0.00;;;24.20;26.50;;;;;;5031600;28;20136;-74
2022/07/17 08:39:50;;;;;;;0.13;0.10;;;25.00;19.30;;;;;;5031555;28;20076;-74
2022/07/17 08:42:16;;;;;;;0.10;0.10;;;25.60;16.40;;;;;;5026071;28;20058;-74
2022/07/17 08:44:42;;;;;;;0.75;0.45;;;26.10;7.60;;;;;;5011910;28;20042;-74
2022/07/17 08:47:10;;;;;;;0.00;0.00;;;26.40;6.00;;;;;;5011334;28;20041;-74
2022/07/17 08:49:42;;;;;;;0.00;0.00;;;26.60;3.50;;;;;;5011350;28;20042;-74
2022/07/17 08:52:10;;;;;;;0.00;0.00;;;26.60;1.10;;;;;;5009401;28;20046;-75
2022/07/17 08:54:36;;;;;;;0.00;0.00;;;26.60;1.00;;;;;;5011581;28;20082;-74
2022/07/17 08:57:03;;;;;;;0.28;0.10;;;26.60;1.00;;;;;;5011405;28;20062;-74
2022/07/17 08:59:29;;;;;;;0.10;0.10;;;26.40;1.00;;;;;;5011396;28;20041;-74
2022/07/17 09:01:55;;;;;;;0.10;0.10;;;26.80;1.00;;;;;;5010753;28;20121;-74
2022/07/17 09:04:20;;;;;;;0.17;0.10;;;27.20;1.00;;;;;;5021384;28;20191;-74
2022/07/17 09:06:56;;;;;;;0.00;0.00;;;26.60;1.00;;;;;;5032973;28;20042;-71
2022/07/17 09:09:22;;;;;;;0.13;0.10;;;26.20;1.00;;;;;;5034883;28;20053;-73
2022/07/17 09:11:52;;;;;;;0.00;0.00;;;26.70;1.00;;;;;;5035020;28;20175;-73
2022/07/17 09:14:19;;;;;;;0.00;0.00;;;27.50;1.00;;;;;;5025338;28;20366;-74
2022/07/17 09:16:56;;;;;;;0.13;0.13;;;27.70;1.00;;;;;;5014312;28;20034;-74
2022/07/17 09:19:32;;;;;;;0.00;0.00;;;27.50;1.00;;;;;;5014561;28;20121;-74
2022/07/17 09:22:23;;;;;;;0.20;0.20;;;26.70;1.00;;;;;;5013814;28;20488;-74
2022/07/17 09:24:58;;;;;;;0.00;0.00;;;27.70;1.00;;;;;;5025422;28;20045;-74
2022/07/17 09:27:23;;;;;;;0.10;0.08;;;28.30;1.00;;;;;;5033974;28;20560;-73
2022/07/17 09:29:57;;;;;;;0.20;0.15;;;28.40;1.00;;;;;;5034114;28;20132;-74
2022/07/17 09:32:24;;;;;;;0.47;0.25;;;27.20;1.00;;;;;;5033944;28;20041;-74
2022/07/17 09:34:52;;;;;;;0.10;0.10;;;27.50;1.00;;;;;;5028880;28;20034;-73
2022/07/17 09:37:21;;;;;;;0.43;0.38;;;28.00;1.00;;;;;;5012876;28;20440;-73
2022/07/17 09:39:46;;;;;;;0.00;0.00;;;26.80;1.00;;;;;;5013711;28;20481;-73
2022/07/17 09:42:22;;;;;;;0.60;0.38;;;27.10;1.00;;;;;;5014006;28;20060;-74
2022/07/17 09:44:58;;;;;;;0.17;0.17;;;27.20;1.00;;;;;;5029710;28;20116;-74
2022/07/17 09:47:24;;;;;;;0.85;0.30;;;27.30;1.00;;;;;;5033717;28;20140;-74
2022/07/17 09:49:53;;;;;;;0.30;0.30;;;27.90;1.00;;;;;;5033332;28;20064;-74
2022/07/17 09:52:20;;;;;;;0.00;0.00;;;27.30;1.00;;;;;;5033369;28;20046;-74
2022/07/17 09:54:48;;;;;;;0.93;0.45;;;26.40;1.00;;;;;;5017472;28;20489;-74
2022/07/17 09:57:15;;;;;;;0.47;0.30;;;26.00;1.00;;;;;;5013491;28;20062;-74
2022/07/17 09:59:42;;;;;;;0.10;0.00;;;26.30;1.00;;;;;;5013465;28;20054;-74
2022/07/17 10:02:09;;;;;;;0.75;0.30;;;25.90;1.00;;;;;;5013506;28;20041;-73
2022/07/17 10:04:35;;;;;;;4.28;0.90;;;25.80;1.00;;;;;;5027035;28;20043;-74
2022/07/17 10:07:01;;;;;;;0.73;0.40;;;26.00;1.00;;;;;;5032793;28;20033;-74
2022/07/17 10:09:27;;;;;;;0.00;0.00;;;25.80;1.00;;;;;;5033287;28;20492;-74
2022/07/17 10:11:53;;;;;;;1.55;0.73;;;25.80;1.00;;;;;;5033340;28;20049;-73
2022/07/17 10:14:19;;;;;;;0.00;0.00;;;25.70;1.00;;;;;;5021470;28;20074;-74
2022/07/17 10:16:45;;;;;;;0.17;0.10;;;25.70;1.00;;;;;;5013367;28;20049;-74
2022/07/17 10:19:32;;;;;;;0.38;0.38;;;25.40;1.00;;;;;;5013310;28;20053;-74
2022/07/17 10:22:00;;;;;;;0.00;0.00;;;25.20;1.00;;;;;;5012054;28;20038;-74
2022/07/17 10:24:29;;;;;;;0.10;0.10;;;25.00;1.00;;;;;;5013601;28;20041;-74
2022/07/17 10:26:56;;;;;;;0.25;0.20;;;25.00;1.00;;;;;;5013509;28;20046;-74
2022/07/17 10:29:39;;;;;;;0.15;0.15;;;25.00;1.00;;;;;;5013625;28;20034;-74
2022/07/17 10:32:15;;;;;;;0.00;0.00;;;24.80;1.00;;;;;;5013457;28;20045;-74
2022/07/17 10:35:06;;;;;;;;;;;25.20;1.00;;;;;;5031171;28;20087;-74
2022/07/17 10:37:39;;;;;;;0.13;0.13;;;25.20;1.00;;;;;;5029920;28;19968;-74
2022/07/17 10:40:07;;;;;;;0.10;0.10;;;25.40;1.00;;;;;;5032796;28;20084;-74
2022/07/17 10:42:38;;;;;;;0.45;0.10;;;25.50;1.00;;;;;;5032892;28;20052;-74
2022/07/17 10:45:13;;;;;;;0.15;0.15;;;25.70;1.00;;;;;;5031428;28;20042;-74
2022/07/17 10:47:58;;;;;;;0.00;0.00;;;25.90;1.00;;;;;;5033335;28;20075;-74
2022/07/17 10:50:39;;;;;;;0.07;0.07;;;25.90;1.00;;;;;;5033173;28;20121;-74
2022/07/17 10:53:07;;;;;;;0.00;0.00;;;26.10;1.00;;;;;;5030327;28;20038;-74
2022/07/17 10:55:44;;;;;;;0.35;0.15;;;26.30;1.00;;;;;;5023209;28;20467;-74
2022/07/17 10:58:26;;;;;;;0.00;0.00;;;26.50;1.00;;;;;;5013896;28;20073;-74
2022/07/17 11:01:09;;;;;;;0.00;0.00;;;26.40;1.00;;;;;;5014115;28;20037;-74
2022/07/17 11:03:39;;;;;;;0.00;0.00;;;26.20;1.00;;;;;;5019811;28;20053;-74
2022/07/17 11:06:30;;;;;;;0.10;0.00;;;26.30;1.00;;;;;;5032914;28;20037;-74
2022/07/17 11:09:00;;;;;;;0.00;0.00;;;26.50;1.00;;;;;;5027972;28;20058;-74
2022/07/17 11:11:40;;;;;;;0.63;0.32;;;26.40;1.00;;;;;;5035348;28;20112;-74
2022/07/17 11:14:23;;;;;;;0.30;0.20;;;26.50;1.00;;;;;;5024961;28;20052;-73
2022/07/17 11:17:00;;;;;;;0.10;0.08;;;26.70;1.00;;;;;;5015663;28;20451;-73
2022/07/17 11:19:32;;;;;;;1.20;0.32;;;27.00;1.00;;;;;;5015439;28;20403;-73
2022/07/17 11:22:03;;;;;;;0.00;0.00;;;27.00;1.00;;;;;;5018452;28;20124;-74
2022/07/17 11:24:38;;;;;;;0.22;0.22;;;27.20;1.00;;;;;;5022019;28;20124;-74
2022/07/17 11:27:04;;;;;;;0.05;0.05;;;26.90;1.00;;;;;;5018146;28;20042;-73
2022/07/17 11:29:29;;;;;;;1.50;0.65;;;26.50;1.00;;;;;;5019236;28;20046;-74
2022/07/17 11:31:58;;;;;;;0.28;0.20;;;27.10;1.00;;;;;;5017898;28;20115;-74
2022/07/17 11:34:27;;;;;;;0.00;0.00;;;27.50;1.00;;;;;;5018843;28;20088;-74
2022/07/17 11:36:59;;;;;;;0.00;0.00;;;28.00;1.00;;;;;;5018527;28;20500;-74
2022/07/17 11:39:25;;;;;;;0.20;0.17;;;28.40;1.00;;;;;;5016823;28;20095;-74
2022/07/17 11:41:52;;;;;;;0.00;0.00;;;28.80;1.00;;;;;;5016975;28;20037;-74
2022/07/17 11:44:24;;;;;;;0.45;0.25;;;29.20;1.00;;;;;;5032363;28;20076;-74
2022/07/17 11:46:51;;;;;;;18.42;0.85;;;29.30;1.00;;;;;;5036228;28;20041;-75
2022/07/17 11:49:29;;;;;;;0.17;0.10;;;30.00;1.00;;;;;;5036244;28;20041;-75
2022/07/17 11:52:10;;;;;;;0.00;0.00;;;29.70;1.00;;;;;;5036466;28;20056;-75
2022/07/17 11:54:54;;;;;;;0.00;0.00;;;30.30;1.00;;;;;;5017731;28;20512;-75
2022/07/17 11:57:21;;;;;;;0.00;0.00;;;29.90;1.00;;;;;;5016321;28;20081;-74
2022/07/17 11:59:47;;;;;;;0.47;0.25;;;29.20;1.00;;;;;;5016704;28;20085;-75
2022/07/17 12:02:19;;;;;;;0.00;0.00;;;29.70;1.00;;;;;;5016856;28;20053;-75
2022/07/17 12:04:52;;;;;;;0.10;0.10;;;30.30;1.00;;;;;;5036045;28;20052;-75
2022/07/17 12:07:20;;;;;;;0.88;0.70;;;30.50;1.00;;;;;;5036975;28;20072;-75
2022/07/17 12:09:46;;;;;;;0.38;0.13;;;31.00;1.00;;;;;;5035614;28;20041;-75
2022/07/17 12:12:51;;;;;;;9.30;0.47;;;31.20;1.00;;;;;;5036784;28;20049;-75
2022/07/17 12:15:17;;;;;;;0.70;0.45;;;30.80;1.00;;;;;;4987030;28;20054;-75
2022/07/17 12:17:42;;;;;;;0.20;0.17;;;30.10;1.00;;;;;;4996537;28;20576;-75
2022/07/17 12:20:08;;;;;;;0.13;0.13;;;31.10;1.00;;;;;;4996155;28;20071;-75
2022/07/17 12:22:48;;;;;;;1.95;0.90;;;31.10;1.00;;;;;;5025204;28;20053;-75
2022/07/17 12:25:27;;;;;;;4.30;1.55;;;31.70;1.00;;;;;;5016782;28;20041;-75
2022/07/17 12:27:54;;;;;;;0.57;0.20;;;31.90;1.00;;;;;;5017224;28;20095;-75
2022/07/17 12:30:20;;;;;;;0.00;0.00;;;32.60;1.00;;;;;;5016683;28;20419;-75
2022/07/17 12:32:47;;;;;;;0.10;0.08;;;32.60;1.00;;;;;;5016513;28;20504;-75
2022/07/17 12:35:13;;;;;;;0.47;0.20;;;32.40;1.00;;;;;;5016257;28;20050;-75
2022/07/17 12:37:39;;;;;;;0.00;0.00;;;33.20;1.00;;;;;;5016104;28;20045;-75
2022/07/17 12:40:05;;;;;;;0.28;0.25;;;33.70;1.00;;;;;;5015930;28;20038;-75
2022/07/17 12:42:31;;;;;;;0.80;0.52;;;32.40;1.00;;;;;;5016388;28;20393;-75
2022/07/17 12:44:56;;;;;;;0.00;0.00;;;32.80;1.00;;;;;;5016757;28;20044;-74
2022/07/17 12:47:22;;;;;;;2.40;0.68;;;33.00;1.00;;;;;;5016644;28;20521;-75
2022/07/17 12:49:48;;;;;;;0.50;0.32;;;33.20;1.00;;;;;;5015332;28;20052;-75
2022/07/17 12:52:13;;;;;;;3.17;0.85;;;33.10;1.00;;;;;;5015638;28;20128;-75
2022/07/17 12:54:39;;;;;;;0.17;0.17;;;31.70;1.00;;;;;;5034360;28;20044;-76
2022/07/17 12:57:06;;;;;;;1.35;0.43;;;31.90;1.00;;;;;;5036058;28;20062;-76